Arapaho — WCX9424 — position and weather

sailwx.info

Track history (hours):
 
Tides and Currents Weather Stations Pressure Air Temp Water Temp Dewpoint Dewpoint Depression Visibility Wind Speed Wind Dir Waves Ship Positions

Arapaho

Owner: SAUSE BROTHERS OCEAN TOWING CO INC, LONG BEACH, CA. More information available from US FCC via Universal Licensing System and Coast Guard Vessel Documentation Center.

Last reported at 2016-May-26 20:33 UTC. Time now 2016-May-28 11:48 UTC.
Position N 33°46' W 118°13'.

Length 37 m; draft 1.5 m.

Type: Towing. MMSI: 367004270.

Date/timePositionNaut miles runAvg speedWind from/ knotsBaromVisibWave heightAir tempDewpointWater temp
2016-May-26 20:33N 33°46' W 118°13'3 2.8
2016-May-26 19:26N 33°45' W 118°10'2 1.7
2016-May-26 18:05N 33°44' W 118°12'1 2.0
2016-May-26 17:22N 33°44' W 118°11'2 1.7
2016-May-26 16:15N 33°44' W 118°08'1 1.7
2016-May-26 15:30N 33°45' W 118°10'1 0.7
2016-May-26 14:22N 33°45' W 118°11'2 1.3
2016-May-26 13:14N 33°45' W 118°12'0 0.0
2016-May-26 12:31N 33°45' W 118°12'0 0.0
2016-May-26 11:32N 33°45' W 118°12'0 0.0
2016-May-26 10:24N 33°45' W 118°12'3 1.1
2016-May-26 07:24N 33°44' W 118°08'1 1.6
2016-May-26 06:29N 33°45' W 118°10'2 1.9
2016-May-26 05:23N 33°45' W 118°12'2 1.2
2016-May-26 03:32N 33°45' W 118°10'1 1.3
2016-May-26 02:32N 33°44' W 118°08'0 0.0
2016-May-25 23:21N 33°44' W 118°08'1 1.2
2016-May-25 22:30N 33°45' W 118°10'2 1.1
2016-May-25 20:26N 33°45' W 118°12'1 1.0
2016-May-25 19:33N 33°44' W 118°12'2 1.9
2016-May-25 18:33N 33°45' W 118°10'2 2.1
2016-May-25 17:32N 33°45' W 118°12'0 0.0
2016-May-25 16:27N 33°45' W 118°12'2 2.5
2016-May-25 15:34N 33°45' W 118°10'1 1.2
2016-May-25 14:29N 33°44' W 118°08'3 3.5
2016-May-25 13:33N 33°45' W 118°12'0 0.0
2016-May-25 12:33N 33°45' W 118°12'0 0.0
2016-May-25 11:33N 33°45' W 118°12'0 0.0
2016-May-25 10:33N 33°45' W 118°12'0 0.0
2016-May-25 09:33N 33°45' W 118°12'0 0.0
2016-May-25 08:34N 33°45' W 118°12'3 3.2
2016-May-25 07:33N 33°44' W 118°08'1 1.3
2016-May-25 06:34N 33°45' W 118°10'2 2.2
2016-May-25 05:34N 33°44' W 118°12'1 0.7
2016-May-25 04:33N 33°45' W 118°12'0 0.1
2016-May-25 03:34N 33°45' W 118°12'0 0.0
2016-May-25 02:34N 33°45' W 118°12'0 0.0
2016-May-25 00:25N 33°45' W 118°12'2 2.6
2016-May-24 23:33N 33°45' W 118°10'1 1.1
2016-May-24 22:34N 33°44' W 118°10'2 2.2
2016-May-24 21:34N 33°45' W 118°12'0 0.0
2016-May-24 20:34N 33°45' W 118°12'0 0.0
2016-May-24 19:34N 33°45' W 118°12'0 0.1
2016-May-24 18:33N 33°45' W 118°12'1 1.4
2016-May-24 17:34N 33°45' W 118°11'1 1.4
2016-May-24 16:34N 33°45' W 118°12'2 2.1
2016-May-24 15:34N 33°45' W 118°10'1 1.0
2016-May-24 14:26N 33°44' W 118°08'3 3.7
2016-May-24 13:34N 33°44' W 118°12'0 0.3
2016-May-24 12:34N 33°45' W 118°12'3 3.2
2016-May-24 11:34N 33°44' W 118°08'0 0.1
2016-May-24 10:34N 33°44' W 118°08'2 1.9
2016-May-24 09:34N 33°44' W 118°11'2 1.6
2016-May-24 08:33N 33°45' W 118°12'0 0.0
2016-May-24 07:34N 33°45' W 118°12'3 3.3
2016-May-24 06:34N 33°44' W 118°08'3 2.8
2016-May-24 05:34N 33°44' W 118°12'1 0.9
2016-May-24 04:33N 33°45' W 118°12'3 3.3
2016-May-24 03:34N 33°44' W 118°08'1 0.1
2016-May-23 03:07N 33°45' W 118°10'2 1.1
2016-May-23 01:05N 33°45' W 118°12'0 0.0
2016-May-23 00:13N 33°45' W 118°12'2 1.2
2016-May-22 22:25N 33°45' W 118°10'2 2.4
2016-May-22 21:32N 33°45' W 118°12'0 0.0
2016-May-20 18:05N 33°45' W 118°12'1 0.9
2016-May-20 16:32N 33°44' W 118°11'1 1.2
2016-May-20 15:33N 33°45' W 118°10'0 0.5
2016-May-20 14:33N 33°45' W 118°09'3 2.6
2016-May-20 13:33N 33°45' W 118°12'0 0.1
2016-May-20 12:33N 33°45' W 118°12'0 0.0
2016-May-20 11:33N 33°45' W 118°12'0 0.0
2016-May-20 10:33N 33°45' W 118°12'0 0.0
2016-May-20 09:33N 33°45' W 118°12'0 0.0
2016-May-20 08:33N 33°45' W 118°12'0 0.0
2016-May-20 07:33N 33°45' W 118°12'0 0.0
2016-May-20 06:33N 33°45' W 118°12'0 0.0
2016-May-20 05:33N 33°45' W 118°12'1 0.7
2016-May-20 04:33N 33°44' W 118°12'2 2.1
2016-May-20 03:33N 33°45' W 118°10'1 1.4
2016-May-20 02:33N 33°46' W 118°11'2 1.8
2016-May-20 01:33N 33°44' W 118°12'0 0.4
2016-May-20 00:33N 33°45' W 118°12'1 0.6
2016-May-19 23:32N 33°44' W 118°12'3 3.2
2016-May-19 22:33N 33°44' W 118°08'3 3.2
2016-May-19 21:32N 33°45' W 118°12'0 0.0
2016-May-19 20:33N 33°45' W 118°12'0 0.0
2016-May-19 19:33N 33°45' W 118°12'0 0.0
2016-May-19 18:33N 33°45' W 118°12'0 0.0
2016-May-19 17:33N 33°45' W 118°12'2 1.6
2016-May-19 16:33N 33°46' W 118°11'2 1.7
2016-May-19 15:33N 33°45' W 118°09'2 1.8
2016-May-19 14:33N 33°46' W 118°11'2 1.6
2016-May-19 13:33N 33°45' W 118°12'0 0.0
2016-May-19 12:33N 33°45' W 118°12'2 2.2
2016-May-19 11:30N 33°44' W 118°10'1 1.0
2016-May-19 10:33N 33°44' W 118°08'3 3.3
2016-May-19 09:33N 33°44' W 118°12'2 2.4
2016-May-19 08:33N 33°45' W 118°10'1 0.9
2016-May-19 07:26N 33°46' W 118°11'1 1.6
2016-May-19 06:33N 33°45' W 118°10'1 0.6
2016-May-19 05:31N 33°44' W 118°10'2 1.8
2016-May-19 04:32N 33°45' W 118°12'0 0.0
2016-May-19 03:10N 33°45' W 118°12'0 0.0
2016-May-19 02:26N 33°45' W 118°12'0 0.0
2016-May-19 01:33N 33°45' W 118°12'0 0.0
2016-May-19 00:25N 33°45' W 118°12'0 0.0
2016-May-18 23:25N 33°45' W 118°12'0 0.2
2016-May-18 22:22N 33°44' W 118°12'0 0.2
2016-May-18 21:17N 33°44' W 118°12'0 0.5
2016-May-18 20:33N 33°45' W 118°12'1 1.2
2016-May-18 19:18N 33°44' W 118°11'2 2.6
2016-May-18 18:32N 33°44' W 118°08'3 2.5
2016-May-18 17:29N 33°44' W 118°12'1 1.0
2016-May-18 16:31N 33°45' W 118°12'1 1.4
2016-May-18 15:32N 33°44' W 118°11'2 2.1
2016-May-18 14:32N 33°44' W 118°08'3 3.3
2016-May-18 13:32N 33°45' W 118°12'0 0.1
2016-May-18 12:27N 33°45' W 118°12'0 0.1
2016-May-18 11:30N 33°45' W 118°12'0 0.0
2016-May-18 10:22N 33°45' W 118°12'0 0.0
2016-May-18 09:33N 33°45' W 118°12'0 0.0
2016-May-18 08:32N 33°45' W 118°12'0 0.0
2016-May-18 07:33N 33°45' W 118°12'2 2.2
2016-May-18 06:30N 33°45' W 118°10'0 0.0
2016-May-18 05:33N 33°45' W 118°10'2 2.1
2016-May-18 04:30N 33°45' W 118°12'2 2.2
2016-May-18 03:28N 33°45' W 118°10'1 1.1
2016-May-18 02:19N 33°44' W 118°08'3 3.5
2016-May-18 01:25N 33°45' W 118°12'0 0.1
2016-May-18 00:27N 33°45' W 118°12'0 0.0
2016-May-17 20:21N 33°45' W 118°12'3 1.6
2016-May-17 18:19N 33°44' W 118°08'3 3.7
2016-May-17 17:26N 33°45' W 118°12'0 0.0
2016-May-17 16:31N 33°45' W 118°12'3 2.8
2016-May-17 15:26N 33°44' W 118°09'1 0.7
2016-May-17 14:31N 33°45' W 118°09'2 2.5
2016-May-17 13:33N 33°45' W 118°12'0 0.0
2016-May-17 12:17N 33°45' W 118°12'2 3.0
2016-May-17 11:33N 33°45' W 118°10'1 0.8
2016-May-17 10:16N 33°44' W 118°08'2 2.5
2016-May-17 09:31N 33°44' W 118°11'1 1.5
2016-May-17 08:31N 33°45' W 118°12'0 0.0
2016-May-17 06:24N 33°45' W 118°12'0 0.0
2016-May-17 05:24N 33°45' W 118°12'2 2.2
2016-May-17 04:31N 33°44' W 118°10'1 1.3
2016-May-17 03:30N 33°45' W 118°09'2 2.0
2016-May-17 02:27N 33°46' W 118°11'2 1.4
2016-May-17 01:21N 33°45' W 118°12'3 1.1
2016-May-16 22:20N 33°44' W 118°08'3 2.9
2016-May-16 21:14N 33°45' W 118°12'  
Track history (hours):
 
Tides and Currents Weather Stations Pressure Air Temp Water Temp Dewpoint Dewpoint Depression Visibility Wind Speed Wind Dir Waves Ship Positions

Arapaho

Owner: SAUSE BROTHERS OCEAN TOWING CO INC, LONG BEACH, CA. More information available from US FCC via Universal Licensing System and Coast Guard Vessel Documentation Center.

Last reported at 2016-May-26 20:33 UTC. Time now 2016-May-28 11:48 UTC.
Position N 33°46' W 118°13'.

Length 37 m; draft 1.5 m.

Type: Towing. MMSI: 367004270.

Date/timePositionNaut miles runAvg speedWind from/ knotsBaromVisibWave heightAir tempDewpointWater temp
2016-May-26 20:33N 33°46' W 118°13'3 2.8
2016-May-26 19:26N 33°45' W 118°10'2 1.7
2016-May-26 18:05N 33°44' W 118°12'1 2.0
2016-May-26 17:22N 33°44' W 118°11'2 1.7
2016-May-26 16:15N 33°44' W 118°08'1 1.7
2016-May-26 15:30N 33°45' W 118°10'1 0.7
2016-May-26 14:22N 33°45' W 118°11'2 1.3
2016-May-26 13:14N 33°45' W 118°12'0 0.0
2016-May-26 12:31N 33°45' W 118°12'0 0.0
2016-May-26 11:32N 33°45' W 118°12'0 0.0
2016-May-26 10:24N 33°45' W 118°12'3 1.1
2016-May-26 07:24N 33°44' W 118°08'1 1.6
2016-May-26 06:29N 33°45' W 118°10'2 1.9
2016-May-26 05:23N 33°45' W 118°12'2 1.2
2016-May-26 03:32N 33°45' W 118°10'1 1.3
2016-May-26 02:32N 33°44' W 118°08'0 0.0
2016-May-25 23:21N 33°44' W 118°08'1 1.2
2016-May-25 22:30N 33°45' W 118°10'2 1.1
2016-May-25 20:26N 33°45' W 118°12'1 1.0
2016-May-25 19:33N 33°44' W 118°12'2 1.9
2016-May-25 18:33N 33°45' W 118°10'2 2.1
2016-May-25 17:32N 33°45' W 118°12'0 0.0
2016-May-25 16:27N 33°45' W 118°12'2 2.5
2016-May-25 15:34N 33°45' W 118°10'1 1.2
2016-May-25 14:29N 33°44' W 118°08'3 3.5
2016-May-25 13:33N 33°45' W 118°12'0 0.0
2016-May-25 12:33N 33°45' W 118°12'0 0.0
2016-May-25 11:33N 33°45' W 118°12'0 0.0
2016-May-25 10:33N 33°45' W 118°12'0 0.0
2016-May-25 09:33N 33°45' W 118°12'0 0.0
2016-May-25 08:34N 33°45' W 118°12'3 3.2
2016-May-25 07:33N 33°44' W 118°08'1 1.3
2016-May-25 06:34N 33°45' W 118°10'2 2.2
2016-May-25 05:34N 33°44' W 118°12'1 0.7
2016-May-25 04:33N 33°45' W 118°12'0 0.1
2016-May-25 03:34N 33°45' W 118°12'0 0.0
2016-May-25 02:34N 33°45' W 118°12'0 0.0
2016-May-25 00:25N 33°45' W 118°12'2 2.6
2016-May-24 23:33N 33°45' W 118°10'1 1.1
2016-May-24 22:34N 33°44' W 118°10'2 2.2
2016-May-24 21:34N 33°45' W 118°12'0 0.0
2016-May-24 20:34N 33°45' W 118°12'0 0.0
2016-May-24 19:34N 33°45' W 118°12'0 0.1
2016-May-24 18:33N 33°45' W 118°12'1 1.4
2016-May-24 17:34N 33°45' W 118°11'1 1.4
2016-May-24 16:34N 33°45' W 118°12'2 2.1
2016-May-24 15:34N 33°45' W 118°10'1 1.0
2016-May-24 14:26N 33°44' W 118°08'3 3.7
2016-May-24 13:34N 33°44' W 118°12'0 0.3
2016-May-24 12:34N 33°45' W 118°12'3 3.2
2016-May-24 11:34N 33°44' W 118°08'0 0.1
2016-May-24 10:34N 33°44' W 118°08'2 1.9
2016-May-24 09:34N 33°44' W 118°11'2 1.6
2016-May-24 08:33N 33°45' W 118°12'0 0.0
2016-May-24 07:34N 33°45' W 118°12'3 3.3
2016-May-24 06:34N 33°44' W 118°08'3 2.8
2016-May-24 05:34N 33°44' W 118°12'1 0.9
2016-May-24 04:33N 33°45' W 118°12'3 3.3
2016-May-24 03:34N 33°44' W 118°08'1 0.1
2016-May-23 03:07N 33°45' W 118°10'2 1.1
2016-May-23 01:05N 33°45' W 118°12'0 0.0
2016-May-23 00:13N 33°45' W 118°12'2 1.2
2016-May-22 22:25N 33°45' W 118°10'2 2.4
2016-May-22 21:32N 33°45' W 118°12'0 0.0
2016-May-20 18:05N 33°45' W 118°12'1 0.9
2016-May-20 16:32N 33°44' W 118°11'1 1.2
2016-May-20 15:33N 33°45' W 118°10'0 0.5
2016-May-20 14:33N 33°45' W 118°09'3 2.6
2016-May-20 13:33N 33°45' W 118°12'0 0.1
2016-May-20 12:33N 33°45' W 118°12'0 0.0
2016-May-20 11:33N 33°45' W 118°12'0 0.0
2016-May-20 10:33N 33°45' W 118°12'0 0.0
2016-May-20 09:33N 33°45' W 118°12'0 0.0
2016-May-20 08:33N 33°45' W 118°12'0 0.0
2016-May-20 07:33N 33°45' W 118°12'0 0.0
2016-May-20 06:33N 33°45' W 118°12'0 0.0
2016-May-20 05:33N 33°45' W 118°12'1 0.7
2016-May-20 04:33N 33°44' W 118°12'2 2.1
2016-May-20 03:33N 33°45' W 118°10'1 1.4
2016-May-20 02:33N 33°46' W 118°11'2 1.8
2016-May-20 01:33N 33°44' W 118°12'0 0.4
2016-May-20 00:33N 33°45' W 118°12'1 0.6
2016-May-19 23:32N 33°44' W 118°12'3 3.2
2016-May-19 22:33N 33°44' W 118°08'3 3.2
2016-May-19 21:32N 33°45' W 118°12'0 0.0
2016-May-19 20:33N 33°45' W 118°12'0 0.0
2016-May-19 19:33N 33°45' W 118°12'0 0.0
2016-May-19 18:33N 33°45' W 118°12'0 0.0
2016-May-19 17:33N 33°45' W 118°12'2 1.6
2016-May-19 16:33N 33°46' W 118°11'2 1.7
2016-May-19 15:33N 33°45' W 118°09'2 1.8
2016-May-19 14:33N 33°46' W 118°11'2 1.6
2016-May-19 13:33N 33°45' W 118°12'0 0.0
2016-May-19 12:33N 33°45' W 118°12'2 2.2
2016-May-19 11:30N 33°44' W 118°10'1 1.0
2016-May-19 10:33N 33°44' W 118°08'3 3.3
2016-May-19 09:33N 33°44' W 118°12'2 2.4
2016-May-19 08:33N 33°45' W 118°10'1 0.9
2016-May-19 07:26N 33°46' W 118°11'1 1.6
2016-May-19 06:33N 33°45' W 118°10'1 0.6
2016-May-19 05:31N 33°44' W 118°10'2 1.8
2016-May-19 04:32N 33°45' W 118°12'0 0.0
2016-May-19 03:10N 33°45' W 118°12'0 0.0
2016-May-19 02:26N 33°45' W 118°12'0 0.0
2016-May-19 01:33N 33°45' W 118°12'0 0.0
2016-May-19 00:25N 33°45' W 118°12'0 0.0
2016-May-18 23:25N 33°45' W 118°12'0 0.2
2016-May-18 22:22N 33°44' W 118°12'0 0.2
2016-May-18 21:17N 33°44' W 118°12'0 0.5
2016-May-18 20:33N 33°45' W 118°12'1 1.2
2016-May-18 19:18N 33°44' W 118°11'2 2.6
2016-May-18 18:32N 33°44' W 118°08'3 2.5
2016-May-18 17:29N 33°44' W 118°12'1 1.0
2016-May-18 16:31N 33°45' W 118°12'1 1.4
2016-May-18 15:32N 33°44' W 118°11'2 2.1
2016-May-18 14:32N 33°44' W 118°08'3 3.3
2016-May-18 13:32N 33°45' W 118°12'0 0.1
2016-May-18 12:27N 33°45' W 118°12'0 0.1
2016-May-18 11:30N 33°45' W 118°12'0 0.0
2016-May-18 10:22N 33°45' W 118°12'0 0.0
2016-May-18 09:33N 33°45' W 118°12'0 0.0
2016-May-18 08:32N 33°45' W 118°12'0 0.0
2016-May-18 07:33N 33°45' W 118°12'2 2.2
2016-May-18 06:30N 33°45' W 118°10'0 0.0
2016-May-18 05:33N 33°45' W 118°10'2 2.1
2016-May-18 04:30N 33°45' W 118°12'2 2.2
2016-May-18 03:28N 33°45' W 118°10'1 1.1
2016-May-18 02:19N 33°44' W 118°08'3 3.5
2016-May-18 01:25N 33°45' W 118°12'0 0.1
2016-May-18 00:27N 33°45' W 118°12'0 0.0
2016-May-17 20:21N 33°45' W 118°12'3 1.6
2016-May-17 18:19N 33°44' W 118°08'3 3.7
2016-May-17 17:26N 33°45' W 118°12'0 0.0
2016-May-17 16:31N 33°45' W 118°12'3 2.8
2016-May-17 15:26N 33°44' W 118°09'1 0.7
2016-May-17 14:31N 33°45' W 118°09'2 2.5
2016-May-17 13:33N 33°45' W 118°12'0 0.0
2016-May-17 12:17N 33°45' W 118°12'2 3.0
2016-May-17 11:33N 33°45' W 118°10'1 0.8
2016-May-17 10:16N 33°44' W 118°08'2 2.5
2016-May-17 09:31N 33°44' W 118°11'1 1.5
2016-May-17 08:31N 33°45' W 118°12'0 0.0
2016-May-17 06:24N 33°45' W 118°12'0 0.0
2016-May-17 05:24N 33°45' W 118°12'2 2.2
2016-May-17 04:31N 33°44' W 118°10'1 1.3
2016-May-17 03:30N 33°45' W 118°09'2 2.0
2016-May-17 02:27N 33°46' W 118°11'2 1.4
2016-May-17 01:21N 33°45' W 118°12'3 1.1
2016-May-16 22:20N 33°44' W 118°08'3 2.9
2016-May-16 21:14N 33°45' W 118°12'  

Dump ship's entire track history